createdAt,value
2023-02-17T00:00:18.426Z,101791.59
2023-02-17T00:02:44.996Z,101787.34
2023-02-17T00:05:11.447Z,101790.84
2023-02-17T00:07:37.940Z,101794.38
2023-02-17T00:10:05.435Z,101803.13
2023-02-17T00:12:31.995Z,101802.34
2023-02-17T00:14:58.501Z,101799.81
2023-02-17T00:17:25.686Z,101796.47
2023-02-17T00:19:54.406Z,101803.44
2023-02-17T00:22:21.045Z,101787.97
2023-02-17T00:24:47.476Z,101788.06
2023-02-17T00:27:14.250Z,101773.41
2023-02-17T00:29:40.744Z,101776.94
2023-02-17T00:32:07.383Z,101769.22
2023-02-17T00:34:34.005Z,101774.47
2023-02-17T00:37:00.529Z,101779.72
2023-02-17T00:39:27.041Z,101776.28
2023-02-17T00:41:53.528Z,101782.41
2023-02-17T00:44:23.250Z,101785.91
2023-02-17T00:46:51.993Z,101771.25
2023-02-17T00:49:24.575Z,101774.72
2023-02-17T00:51:52.054Z,101783.47
2023-02-17T00:54:19.176Z,101791.28
2023-02-17T00:56:46.083Z,101791.31
2023-02-17T00:59:13.004Z,101782.69
2023-02-17T01:01:39.541Z,101785.31
2023-02-17T01:04:06.174Z,101784.50
2023-02-17T01:06:35.966Z,101791.44
2023-02-17T01:09:04.682Z,101784.56
2023-02-17T01:11:33.274Z,101782.84
2023-02-17T01:14:01.429Z,101769.88
2023-02-17T01:16:31.498Z,101786.31
2023-02-17T01:18:58.942Z,101782.06
2023-02-17T01:21:27.686Z,101774.31
2023-02-17T01:23:56.794Z,101770.88
2023-02-17T01:26:25.765Z,101770.88
2023-02-17T01:28:54.310Z,101766.56
2023-02-17T01:31:23.005Z,101762.25
2023-02-17T01:33:49.618Z,101763.09
2023-02-17T01:36:18.370Z,101749.22
2023-02-17T01:38:45.396Z,101748.41
2023-02-17T01:41:14.248Z,101751.84
2023-02-17T01:43:40.985Z,101748.41
2023-02-17T01:46:09.679Z,101758.84
2023-02-17T01:48:50.582Z,101746.69
2023-02-17T01:51:23.082Z,101747.56
2023-02-17T01:53:58.193Z,101765.81
2023-02-17T01:56:26.294Z,101757.19
2023-02-17T01:59:02.941Z,101764.09
2023-02-17T02:01:30.842Z,101779.72
2023-02-17T02:04:00.222Z,101749.38
2023-02-17T02:06:29.857Z,101757.19
2023-02-17T02:08:58.382Z,101753.75
2023-02-17T02:11:27.099Z,101764.16
2023-02-17T02:13:55.086Z,101768.50
2023-02-17T02:16:34.109Z,101762.44
2023-02-17T02:19:11.437Z,101766.78
2023-02-17T02:22:09.479Z,101772.84
2023-02-17T02:25:06.815Z,101765.06
2023-02-17T02:27:45.494Z,101779.84
2023-02-17T02:30:21.804Z,101777.25
2023-02-17T02:33:00.398Z,101762.53
2023-02-17T02:35:51.212Z,101748.59
2023-02-17T02:38:28.932Z,101759.09
2023-02-17T02:41:11.162Z,101742.63
2023-02-17T02:43:38.488Z,101760.81
2023-02-17T02:46:05.804Z,101757.38
2023-02-17T02:48:32.560Z,101760.00
2023-02-17T02:51:10.350Z,101747.84
2023-02-17T02:54:02.318Z,101750.47
2023-02-17T02:56:52.572Z,101740.06
2023-02-17T02:59:51.037Z,101746.09
2023-02-17T03:02:27.050Z,101733.09
2023-02-17T03:05:05.778Z,101735.69
2023-02-17T03:07:37.979Z,101727.81
2023-02-17T03:10:05.970Z,101706.97
2023-02-17T03:12:36.369Z,101720.00
2023-02-17T03:15:29.709Z,101732.09
2023-02-17T03:17:57.702Z,101731.22
2023-02-17T03:20:25.127Z,101709.50
2023-02-17T03:22:51.767Z,101706.91
2023-02-17T03:25:18.282Z,101706.03
2023-02-17T03:27:46.343Z,101707.72
2023-02-17T03:30:14.717Z,101704.22
2023-02-17T03:32:41.597Z,101700.72
2023-02-17T03:35:08.581Z,101710.22
2023-02-17T03:37:35.154Z,101701.50
2023-02-17T03:40:01.639Z,101694.56
2023-02-17T03:42:47.745Z,101685.00
2023-02-17T03:45:14.518Z,101685.81
2023-02-17T03:47:40.996Z,101687.56
2023-02-17T03:50:08.208Z,101692.69
2023-02-17T03:52:34.673Z,101703.94
2023-02-17T03:55:01.157Z,101698.72
2023-02-17T03:57:27.767Z,101709.91
2023-02-17T03:59:54.262Z,101703.00
2023-02-17T04:02:20.713Z,101699.53
2023-02-17T04:04:47.343Z,101689.13
2023-02-17T04:07:13.961Z,101697.75
2023-02-17T04:09:40.478Z,101682.16
2023-02-17T04:12:07.013Z,101689.09
2023-02-17T04:14:33.644Z,101697.72
2023-02-17T04:17:00.171Z,101695.09
2023-02-17T04:19:26.670Z,101709.81
2023-02-17T04:21:53.155Z,101715.00
2023-02-17T04:24:20.814Z,101707.19
2023-02-17T04:26:47.291Z,101721.03
2023-02-17T04:29:13.790Z,101720.16
2023-02-17T04:31:40.565Z,101739.16
2023-02-17T04:34:07.202Z,101714.06
2023-02-17T04:36:33.698Z,101718.41
2023-02-17T04:39:00.242Z,101712.34
2023-02-17T04:41:26.712Z,101710.63
2023-02-17T04:43:53.219Z,101718.41
2023-02-17T04:46:19.708Z,101720.16
2023-02-17T04:48:46.259Z,101707.19
2023-02-17T04:51:12.803Z,101713.22
2023-02-17T04:53:39.296Z,101713.22
2023-02-17T04:56:06.564Z,101732.28
2023-02-17T04:58:33.407Z,101715.81
2023-02-17T05:01:00.466Z,101726.19
2023-02-17T05:03:27.091Z,101721.00
2023-02-17T05:05:53.546Z,101705.44
2023-02-17T05:08:20.013Z,101735.69
2023-02-17T05:10:46.525Z,101724.47
2023-02-17T05:13:13.070Z,101726.19
2023-02-17T05:15:39.562Z,101708.00
2023-02-17T05:18:06.121Z,101724.44
2023-02-17T05:20:32.658Z,101703.69
2023-02-17T05:22:59.203Z,101713.16
2023-02-17T05:25:25.822Z,101695.84
2023-02-17T05:27:52.308Z,101705.38
2023-02-17T05:30:19.163Z,101694.13
2023-02-17T05:32:46.225Z,101682.88
2023-02-17T05:35:12.699Z,101692.38
2023-02-17T05:37:39.270Z,101698.41
2023-02-17T05:40:07.006Z,101681.13
2023-02-17T05:42:33.517Z,101675.06
2023-02-17T05:44:59.968Z,101676.75
2023-02-17T05:47:27.706Z,101690.56
2023-02-17T05:49:54.402Z,101688.81
2023-02-17T05:52:20.912Z,101701.78
2023-02-17T05:54:47.447Z,101694.00
2023-02-17T05:57:13.909Z,101687.97
2023-02-17T05:59:40.376Z,101671.50
2023-02-17T06:02:06.873Z,101678.38
2023-02-17T06:04:33.584Z,101687.06
2023-02-17T06:07:00.121Z,101687.91
2023-02-17T06:09:26.773Z,101673.19
2023-02-17T06:11:53.397Z,101688.75
2023-02-17T06:14:19.860Z,101670.63
2023-02-17T06:16:46.377Z,101664.56
2023-02-17T06:19:12.851Z,101649.00
2023-02-17T06:21:39.381Z,101645.56
2023-02-17T06:24:06.118Z,101655.06
2023-02-17T06:26:32.626Z,101655.06
2023-02-17T06:28:59.098Z,101650.75
2023-02-17T06:31:25.881Z,101661.13
2023-02-17T06:33:52.413Z,101636.88
2023-02-17T06:36:18.860Z,101651.59
2023-02-17T06:38:45.329Z,101668.00
2023-02-17T06:41:11.810Z,101668.00
2023-02-17T06:43:38.290Z,101668.88
2023-02-17T06:46:05.332Z,101669.72
2023-02-17T06:48:32.361Z,101665.44
2023-02-17T06:50:59.963Z,101661.09
2023-02-17T06:53:26.781Z,101674.94
2023-02-17T06:55:53.286Z,101673.22
2023-02-17T06:58:19.707Z,101676.66
2023-02-17T07:00:46.267Z,101668.88
2023-02-17T07:03:14.935Z,101672.34
2023-02-17T07:05:41.489Z,101682.72
2023-02-17T07:08:08.006Z,101700.88
2023-02-17T07:10:34.622Z,101716.41
2023-02-17T07:13:01.084Z,101697.41
2023-02-17T07:15:27.682Z,101697.41
2023-02-17T07:17:54.230Z,101704.31
2023-02-17T07:20:20.879Z,101701.69
2023-02-17T07:22:47.334Z,101705.13
2023-02-17T07:25:13.945Z,101703.38
2023-02-17T07:27:40.727Z,101731.91
2023-02-17T07:30:08.130Z,101744.00
2023-02-17T07:32:34.942Z,101747.50
2023-02-17T07:35:01.401Z,101749.25
2023-02-17T07:37:27.843Z,101751.06
2023-02-17T07:39:54.338Z,101746.75
2023-02-17T07:42:20.813Z,101728.66
2023-02-17T07:44:47.298Z,101721.75
2023-02-17T07:47:14.079Z,101737.34
2023-02-17T07:49:40.599Z,101741.72
2023-02-17T07:52:07.114Z,101753.00
2023-02-17T07:54:33.645Z,101753.03
2023-02-17T07:57:00.293Z,101763.44
2023-02-17T07:59:27.064Z,101753.13
2023-02-17T08:01:53.627Z,101760.09
2023-02-17T08:04:20.202Z,101754.97
2023-02-17T08:06:46.677Z,101747.25
2023-02-17T08:09:13.230Z,101753.34
2023-02-17T08:11:40.774Z,101738.66
2023-02-17T08:14:07.326Z,101726.59
2023-02-17T08:16:34.537Z,101740.47
2023-02-17T08:19:01.222Z,101737.94
2023-02-17T08:21:28.250Z,101737.09
2023-02-17T08:23:55.340Z,101734.53
2023-02-17T08:26:22.357Z,101722.47
2023-02-17T08:28:49.085Z,101714.72
2023-02-17T08:31:32.570Z,101739.00
2023-02-17T08:34:01.402Z,101717.34
2023-02-17T08:36:29.103Z,101712.22
2023-02-17T08:38:56.385Z,101703.59
2023-02-17T08:41:28.633Z,101725.31
2023-02-17T08:43:56.554Z,101712.34
2023-02-17T08:46:23.487Z,101725.38
2023-02-17T08:48:50.476Z,101728.94
2023-02-17T08:51:20.047Z,101715.94
2023-02-17T08:53:46.526Z,101738.56
2023-02-17T08:56:12.978Z,101728.22
2023-02-17T08:58:39.497Z,101727.38
2023-02-17T09:01:06.046Z,101728.28
2023-02-17T09:03:37.751Z,101740.44
2023-02-17T09:06:05.281Z,101745.69
2023-02-17T09:08:32.082Z,101744.88
2023-02-17T09:10:58.834Z,101745.78
2023-02-17T09:13:25.414Z,101748.44
2023-02-17T09:15:52.024Z,101731.97
2023-02-17T09:18:18.498Z,101738.06
2023-02-17T09:20:45.037Z,101733.69
2023-02-17T09:23:11.565Z,101730.22
2023-02-17T09:25:38.050Z,101726.72
2023-02-17T09:28:04.904Z,101722.38
2023-02-17T09:30:31.533Z,101719.75
2023-02-17T09:32:58.512Z,101695.41
2023-02-17T09:35:25.728Z,101698.84
2023-02-17T09:37:52.294Z,101720.56
2023-02-17T09:40:22.325Z,101728.38
2023-02-17T09:42:49.644Z,101731.81
2023-02-17T09:45:27.302Z,101726.59
2023-02-17T09:48:07.831Z,101744.91
2023-02-17T09:50:50.846Z,101770.09
2023-02-17T09:53:41.214Z,101770.16
2023-02-17T09:56:14.586Z,101763.19
2023-02-17T09:58:51.545Z,101758.84
2023-02-17T10:01:21.189Z,101762.31
2023-02-17T10:03:59.746Z,101774.50
2023-02-17T10:06:31.194Z,101784.91
2023-02-17T10:09:17.679Z,101796.22
2023-02-17T10:11:48.404Z,101795.34
2023-02-17T10:14:21.406Z,101798.81
2023-02-17T10:17:13.697Z,101799.72
2023-02-17T10:20:02.944Z,101811.88
2023-02-17T10:22:31.829Z,101828.38
2023-02-17T10:25:01.071Z,101815.34
2023-02-17T10:27:39.326Z,101811.88
2023-02-17T10:30:20.794Z,101826.69
2023-02-17T10:33:00.536Z,101822.31
2023-02-17T10:35:42.277Z,101817.09
2023-02-17T10:38:36.639Z,101827.53
2023-02-17T10:41:06.905Z,101826.66
2023-02-17T10:43:33.506Z,101842.31
2023-02-17T10:46:02.713Z,101839.69
2023-02-17T10:48:40.303Z,101838.84
2023-02-17T10:51:07.715Z,101843.16
2023-02-17T10:53:38.149Z,101844.03
2023-02-17T10:56:25.534Z,101848.34
2023-02-17T10:58:55.469Z,101838.78
2023-02-17T11:01:22.381Z,101836.19
2023-02-17T11:04:06.098Z,101813.56
2023-02-17T11:06:37.817Z,101824.03
2023-02-17T11:09:07.109Z,101830.09
2023-02-17T11:11:36.296Z,101830.97
2023-02-17T11:14:08.606Z,101832.69
2023-02-17T11:16:42.426Z,101857.09
2023-02-17T11:19:27.257Z,101849.22
2023-02-17T11:21:55.777Z,101861.38
2023-02-17T11:24:22.999Z,101863.94
2023-02-17T11:27:03.221Z,101863.91
2023-02-17T11:29:30.175Z,101849.94
2023-02-17T11:32:01.650Z,101866.41
2023-02-17T11:34:31.804Z,101889.00
2023-02-17T11:37:22.433Z,101879.38
2023-02-17T11:39:51.490Z,101881.91
2023-02-17T11:42:29.310Z,101885.38
2023-02-17T11:44:58.690Z,101894.03
2023-02-17T11:47:59.007Z,101890.44
2023-02-17T11:50:49.950Z,101894.75
2023-02-17T11:53:34.425Z,101911.22
2023-02-17T11:56:39.309Z,101925.09
2023-02-17T11:59:20.729Z,101920.63
2023-02-17T12:02:03.032Z,101912.78
2023-02-17T12:04:32.884Z,101917.16
2023-02-17T12:07:30.496Z,101931.97
2023-02-17T12:10:06.807Z,101942.41
2023-02-17T12:13:00.842Z,101942.28
2023-02-17T12:15:31.579Z,101949.22
2023-02-17T12:18:12.109Z,101948.34
2023-02-17T12:20:47.619Z,101951.88
2023-02-17T12:23:35.661Z,101963.25
2023-02-17T12:26:28.148Z,101972.84
2023-02-17T12:29:02.059Z,101972.81
2023-02-17T12:31:50.591Z,101973.66
2023-02-17T12:34:29.046Z,101969.28
2023-02-17T12:36:57.050Z,101975.44
2023-02-17T12:39:30.634Z,101971.09
2023-02-17T12:42:11.313Z,101965.81
2023-02-17T12:44:42.283Z,101978.88
2023-02-17T12:47:29.562Z,101984.91
2023-02-17T12:50:14.982Z,101978.84
2023-02-17T12:52:46.604Z,101994.56
2023-02-17T12:55:21.229Z,101992.03
2023-02-17T12:57:58.425Z,101992.03
2023-02-17T13:00:32.044Z,101973.72
2023-02-17T13:02:59.546Z,101984.22
2023-02-17T13:05:48.447Z,101973.75
2023-02-17T13:08:34.746Z,101972.88
2023-02-17T13:11:03.941Z,101982.47
2023-02-17T13:13:33.016Z,101972.84
2023-02-17T13:16:13.534Z,101977.16
2023-02-17T13:18:42.300Z,101964.88
2023-02-17T13:21:16.961Z,101970.16
2023-02-17T13:23:46.046Z,101965.75
2023-02-17T13:26:18.484Z,101993.56
2023-02-17T13:28:45.565Z,101988.31
2023-02-17T13:31:19.128Z,101979.53
2023-02-17T13:33:52.473Z,101982.03
2023-02-17T13:36:38.387Z,101971.38
2023-02-17T13:39:26.445Z,101982.47
2023-02-17T13:41:55.080Z,101990.13
2023-02-17T13:44:32.228Z,101995.22
2023-02-17T13:47:05.925Z,101998.63
2023-02-17T13:49:33.421Z,102018.59
2023-02-17T13:52:17.812Z,102004.47
2023-02-17T13:55:18.126Z,101999.16
2023-02-17T13:57:44.874Z,102000.91
2023-02-17T14:00:31.363Z,101998.38
2023-02-17T14:03:20.456Z,102002.66
2023-02-17T14:05:49.246Z,101999.34
2023-02-17T14:08:28.453Z,102005.50
2023-02-17T14:10:55.914Z,102010.75
2023-02-17T14:13:23.190Z,102011.63
2023-02-17T14:15:58.661Z,102008.19
2023-02-17T14:18:38.698Z,102013.38
2023-02-17T14:21:26.103Z,102004.47
2023-02-17T14:23:55.522Z,102005.34
2023-02-17T14:26:44.194Z,102012.31
2023-02-17T14:29:12.432Z,102016.78
2023-02-17T14:31:40.014Z,102017.56
2023-02-17T14:34:08.018Z,102016.72
2023-02-17T14:36:37.706Z,102009.75
2023-02-17T14:39:07.740Z,102016.88
2023-02-17T14:41:34.657Z,102023.84
2023-02-17T14:44:01.187Z,102022.06
2023-02-17T14:46:28.023Z,102032.31
2023-02-17T14:48:54.569Z,102029.38
2023-02-17T14:51:37.881Z,102030.72
2023-02-17T14:54:13.794Z,102034.69
2023-02-17T14:57:11.951Z,102029.88
2023-02-17T14:59:38.446Z,102046.19
2023-02-17T15:02:14.131Z,102027.72
2023-02-17T15:04:40.725Z,102038.00
2023-02-17T15:07:14.185Z,102049.59
2023-02-17T15:09:43.646Z,102044.59
2023-02-17T15:12:22.021Z,102051.06
2023-02-17T15:14:48.589Z,102049.63
2023-02-17T15:17:16.052Z,102054.28
2023-02-17T15:19:43.167Z,102060.69
2023-02-17T15:22:12.497Z,102056.63
2023-02-17T15:24:39.810Z,102071.72
2023-02-17T15:27:14.634Z,102044.09
2023-02-17T15:29:41.118Z,102070.41
2023-02-17T15:32:15.189Z,102056.66
2023-02-17T15:34:41.811Z,102073.28
2023-02-17T15:37:09.950Z,102070.00
2023-02-17T15:39:36.447Z,102074.44
2023-02-17T15:42:07.495Z,102078.06
2023-02-17T15:44:49.648Z,102084.25
2023-02-17T15:47:18.777Z,102091.28
2023-02-17T15:49:45.454Z,102087.84
2023-02-17T15:52:13.199Z,102084.38
2023-02-17T15:54:40.518Z,102091.41
2023-02-17T15:57:07.397Z,102092.31
2023-02-17T15:59:33.948Z,102099.31
2023-02-17T16:02:00.901Z,102098.47
2023-02-17T16:04:27.758Z,102094.13
2023-02-17T16:06:54.973Z,102109.00
2023-02-17T16:09:21.506Z,102101.19
2023-02-17T16:11:54.278Z,102110.81
2023-02-17T16:14:30.291Z,102116.03
2023-02-17T16:16:56.845Z,102114.31
2023-02-17T16:19:23.386Z,102116.97
2023-02-17T16:21:49.902Z,102132.66
2023-02-17T16:24:16.330Z,102135.31
2023-02-17T16:26:43.068Z,102135.31
2023-02-17T16:29:15.604Z,102142.28
2023-02-17T16:31:42.322Z,102133.63
2023-02-17T16:34:18.016Z,102136.22
2023-02-17T16:36:44.841Z,102140.63
2023-02-17T16:39:16.827Z,102136.25
2023-02-17T16:41:44.451Z,102127.59
2023-02-17T16:44:15.852Z,102131.91
2023-02-17T16:46:47.311Z,102130.19
2023-02-17T16:49:20.577Z,102130.22
2023-02-17T16:51:47.893Z,102137.19
2023-02-17T16:54:16.729Z,102151.13
2023-02-17T16:56:46.763Z,102145.88
2023-02-17T16:59:15.179Z,102135.47
2023-02-17T17:01:41.925Z,102145.91
2023-02-17T17:04:08.706Z,102144.16
2023-02-17T17:06:35.781Z,102138.94
2023-02-17T17:09:03.230Z,102158.94
2023-02-17T17:11:30.854Z,102151.09
2023-02-17T17:13:57.904Z,102155.44
2023-02-17T17:16:33.004Z,102152.81
2023-02-17T17:18:59.482Z,102159.75
2023-02-17T17:21:26.185Z,102160.63
2023-02-17T17:23:53.018Z,102164.03
2023-02-17T17:26:41.744Z,102152.69
2023-02-17T17:29:11.138Z,102170.09
2023-02-17T17:31:37.719Z,102184.84
2023-02-17T17:34:04.378Z,102206.56
2023-02-17T17:36:34.165Z,102197.88
2023-02-17T17:39:02.430Z,102204.78
2023-02-17T17:41:29.516Z,102205.63
2023-02-17T17:43:56.922Z,102209.97
2023-02-17T17:46:31.091Z,102213.41
2023-02-17T17:48:59.459Z,102228.19
2023-02-17T17:51:28.319Z,102232.53
2023-02-17T17:53:56.051Z,102249.03
2023-02-17T17:56:31.458Z,102228.97
2023-02-17T17:58:59.826Z,102236.78
2023-02-17T18:01:26.712Z,102251.53
2023-02-17T18:03:54.158Z,102250.66
2023-02-17T18:06:24.550Z,102232.34
2023-02-17T18:08:53.561Z,102224.47
2023-02-17T18:11:23.035Z,102236.63
2023-02-17T18:13:53.133Z,102227.06
2023-02-17T18:16:23.238Z,102244.38
2023-02-17T18:18:50.602Z,102233.91
2023-02-17T18:21:17.507Z,102235.56
2023-02-17T18:23:44.122Z,102252.03
2023-02-17T18:26:12.350Z,102259.81
2023-02-17T18:28:39.295Z,102246.72
2023-02-17T18:31:07.812Z,102253.66
2023-02-17T18:33:34.374Z,102254.44
2023-02-17T18:36:27.311Z,102258.69
2023-02-17T18:38:54.013Z,102260.41
2023-02-17T18:41:25.805Z,102256.00
2023-02-17T18:43:52.911Z,102258.56
2023-02-17T18:46:19.870Z,102266.31
2023-02-17T18:48:46.456Z,102273.22
2023-02-17T18:51:15.501Z,102264.41
2023-02-17T18:53:42.394Z,102278.31
2023-02-17T18:56:21.306Z,102282.59
2023-02-17T18:58:49.746Z,102282.53
2023-02-17T19:01:23.731Z,102273.75
2023-02-17T19:03:50.645Z,102285.03
2023-02-17T19:06:20.687Z,102286.78
2023-02-17T19:08:48.102Z,102288.50
2023-02-17T19:11:15.828Z,102277.19
2023-02-17T19:13:42.507Z,102285.84
2023-02-17T19:16:13.460Z,102280.56
2023-02-17T19:18:41.050Z,102280.56
2023-02-17T19:21:08.170Z,102282.28
2023-02-17T19:23:35.602Z,102282.25
2023-02-17T19:26:03.479Z,102281.34
2023-02-17T19:28:29.974Z,102277.00
2023-02-17T19:30:57.699Z,102278.69
2023-02-17T19:33:25.293Z,102279.53
2023-02-17T19:35:52.634Z,102274.28
2023-02-17T19:38:19.191Z,102282.03
2023-02-17T19:40:46.251Z,102272.50
2023-02-17T19:43:12.744Z,102276.00
2023-02-17T19:45:42.013Z,102277.66
2023-02-17T19:48:10.035Z,102279.41
2023-02-17T19:50:37.439Z,102270.72
2023-02-17T19:53:03.943Z,102271.59
2023-02-17T19:55:30.415Z,102274.19
2023-02-17T19:57:56.906Z,102272.47
2023-02-17T20:00:23.582Z,102264.63
2023-02-17T20:02:50.122Z,102275.91
2023-02-17T20:05:16.665Z,102265.50
2023-02-17T20:07:43.251Z,102266.38
2023-02-17T20:10:11.711Z,102255.09
2023-02-17T20:12:38.749Z,102255.09
2023-02-17T20:15:05.605Z,102249.06
2023-02-17T20:17:32.216Z,102249.06
2023-02-17T20:19:58.788Z,102250.75
2023-02-17T20:22:25.931Z,102253.34
2023-02-17T20:24:52.417Z,102253.34
2023-02-17T20:27:19.016Z,102264.59
2023-02-17T20:29:45.517Z,102272.41
2023-02-17T20:32:12.117Z,102268.09
2023-02-17T20:34:39.383Z,102246.41
2023-02-17T20:37:06.947Z,102253.34
2023-02-17T20:39:34.387Z,102251.63
2023-02-17T20:42:01.688Z,102262.03
2023-02-17T20:44:28.361Z,102262.03
2023-02-17T20:46:56.212Z,102262.03
2023-02-17T20:49:22.696Z,102274.16
2023-02-17T20:51:49.905Z,102268.09
2023-02-17T20:54:16.637Z,102265.47
2023-02-17T20:56:46.262Z,102252.38
2023-02-17T20:59:13.389Z,102261.16
2023-02-17T21:01:41.037Z,102256.78
2023-02-17T21:04:08.362Z,102255.00
2023-02-17T21:06:37.674Z,102239.34
2023-02-17T21:09:06.970Z,102252.41
2023-02-17T21:11:33.653Z,102262.78
2023-02-17T21:14:00.313Z,102268.91
2023-02-17T21:16:29.207Z,102266.28
2023-02-17T21:18:55.728Z,102265.41
2023-02-17T21:21:22.354Z,102274.97
2023-02-17T21:23:48.852Z,102286.22
2023-02-17T21:26:16.999Z,102283.63
2023-02-17T21:28:44.168Z,102279.28
2023-02-17T21:31:10.874Z,102266.28
2023-02-17T21:33:37.482Z,102261.09
2023-02-17T21:36:06.202Z,102235.84
2023-02-17T21:38:32.899Z,102242.91
2023-02-17T21:41:05.377Z,102252.41
2023-02-17T21:43:31.890Z,102246.34
2023-02-17T21:45:58.341Z,102243.75
2023-02-17T21:48:24.956Z,102248.91
2023-02-17T21:50:51.441Z,102251.50
2023-02-17T21:53:18.272Z,102247.19
2023-02-17T21:55:45.997Z,102235.06
2023-02-17T21:58:12.618Z,102227.25
2023-02-17T22:00:39.158Z,102233.34
2023-02-17T22:03:05.683Z,102224.69
2023-02-17T22:05:32.360Z,102211.69
2023-02-17T22:07:58.880Z,102207.34
2023-02-17T22:10:25.382Z,102209.97
2023-02-17T22:12:52.979Z,102203.91
2023-02-17T22:15:19.534Z,102193.53
2023-02-17T22:17:46.004Z,102198.75
2023-02-17T22:20:12.701Z,102198.75
2023-02-17T22:22:39.200Z,102186.66
2023-02-17T22:25:05.872Z,102186.66
2023-02-17T22:27:32.805Z,102194.50
2023-02-17T22:29:59.353Z,102185.81
2023-02-17T22:32:25.905Z,102179.69
2023-02-17T22:34:52.431Z,102197.16
2023-02-17T22:37:18.937Z,102180.66
2023-02-17T22:39:45.492Z,102180.69
2023-02-17T22:42:12.065Z,102173.78
2023-02-17T22:44:38.573Z,102176.41
2023-02-17T22:47:05.073Z,102173.78
2023-02-17T22:49:31.546Z,102190.28
2023-02-17T22:51:58.090Z,102165.16
2023-02-17T22:54:24.536Z,102175.56
2023-02-17T22:56:51.033Z,102165.16
2023-02-17T22:59:17.493Z,102171.25
2023-02-17T23:01:44.010Z,102176.44
2023-02-17T23:04:13.358Z,102153.81
2023-02-17T23:06:40.441Z,102169.47
2023-02-17T23:09:09.122Z,102173.84
2023-02-17T23:11:37.941Z,102152.09
2023-02-17T23:14:04.420Z,102161.72
2023-02-17T23:16:31.254Z,102164.31
2023-02-17T23:18:57.821Z,102167.81
2023-02-17T23:21:24.316Z,102164.34
2023-02-17T23:23:50.770Z,102159.13
2023-02-17T23:26:17.250Z,102164.38
2023-02-17T23:28:43.718Z,102167.84
2023-02-17T23:31:11.189Z,102156.56
2023-02-17T23:33:37.880Z,102148.75
2023-02-17T23:36:05.661Z,102165.28
2023-02-17T23:38:32.876Z,102154.88
2023-02-17T23:40:59.598Z,102161.81
2023-02-17T23:43:26.089Z,102153.13
2023-02-17T23:45:55.650Z,102156.63
2023-02-17T23:48:22.785Z,102152.28
2023-02-17T23:51:00.687Z,102146.16
2023-02-17T23:53:28.370Z,102144.41
2023-02-17T23:56:11.103Z,102120.06
2023-02-17T23:58:37.615Z,102134.88
